WetterOnline ( http://www.wetteronline.de )

Wetter aktuell Offenburg

Aktuelles Wetter: Lahr (156m)

6-stündlich | Neueste Meldungen
Ortszeit Temperatur Wetter
Do, 18.10. 14:00 19.5° C leicht bewölkt
Do, 18.10. 8:00 5.6° C Nebel
Do, 18.10. 2:00 7.2° C wolkig
Mi, 17.10. 20:00 13.9° C wolkig
Mi, 17.10. 14:00 18.7° C leicht bewölkt
Mi, 17.10. 8:00 5.9° C Nebel
Mi, 17.10. 2:00 7.0° C wolkenlos
Di, 16.10. 20:00 12.5° C leicht bewölkt
Ortszeit Temperatur Wetter
Do, 18.10. 15:00 21.0° C leicht bewölkt
Do, 18.10. 14:50 21.0° C wolkig
Do, 18.10. 14:40 20.9° C wolkig
Do, 18.10. 14:30 20.6° C wolkig
Do, 18.10. 14:20 20.6° C wolkig
Do, 18.10. 14:10 20.1° C wolkig
Do, 18.10. 14:00 19.5° C leicht bewölkt
Do, 18.10. 13:30 18.2° C leicht bewölkt
Do, 18.10. 13:00 16.2° C leicht bewölkt
Do, 18.10. 12:30 15.4° C wolkig
Do, 18.10. 12:00 14.6° C leicht bewölkt
Ortszeit Relative Feuchte Sichtweite
Do, 18.10. 14:00 58% 11 km
Do, 18.10. 8:00 100% 0.2 km
Do, 18.10. 2:00 97% 3.2 km
Mi, 17.10. 20:00 82% 13 km
Mi, 17.10. 14:00 54% 16 km
Mi, 17.10. 8:00 100% 0.4 km
Mi, 17.10. 2:00 100% 2.9 km
Di, 16.10. 20:00 88% 9 km
Ortszeit Relative Feuchte Sichtweite
Do, 18.10. 15:00 52% 14 km
Do, 18.10. 14:50 52% -
Do, 18.10. 14:40 52% -
Do, 18.10. 14:30 56% 16 km
Do, 18.10. 14:20 56% -
Do, 18.10. 14:10 57% -
Do, 18.10. 14:00 58% 11 km
Do, 18.10. 13:30 62% 11 km
Do, 18.10. 13:00 68% 9 km
Do, 18.10. 12:30 69% 10 km
Do, 18.10. 12:00 74% 9 km
Ortszeit Niederschlagsmenge Niederschlagsart
Do, 18.10. 14:00 0.0 l/m2 in 6 Std. -
Do, 18.10. 8:00 0.0 l/m2 in 12 Std. -
Do, 18.10. 2:00 0.0 l/m2 in 6 Std. -
Mi, 17.10. 20:00 0.0 l/m2 in 12 Std. -
Mi, 17.10. 14:00 0.0 l/m2 in 6 Std. -
Mi, 17.10. 8:00 0.0 l/m2 in 12 Std. -
Mi, 17.10. 2:00 0.0 l/m2 in 6 Std. -
Di, 16.10. 20:00 0.0 l/m2 in 12 Std. -
Ortszeit Niederschlagsmenge Niederschlagsart
Do, 18.10. 15:00 0.0 l/m2 in 1 Std. -
Do, 18.10. 14:50 keine Meldung -
Do, 18.10. 14:40 keine Meldung -
Do, 18.10. 14:30 0.0 l/m2 in 1 Std. -
Do, 18.10. 14:20 keine Meldung -
Do, 18.10. 14:10 keine Meldung -
Do, 18.10. 14:00 0.0 l/m2 in 1 Std. -
Do, 18.10. 13:30 0.0 l/m2 in 1 Std. -
Do, 18.10. 13:00 0.0 l/m2 in 1 Std. -
Do, 18.10. 12:30 0.0 l/m2 in 1 Std. -
Do, 18.10. 12:00 0.0 l/m2 in 1 Std. -
Ortszeit Stärke Spitze Richtung
km/h Bft. km/h Grad Sektor
Do, 18.10. 14:00 14 3 25 20° N
Do, 18.10. 8:00 0 0 4 - -
Do, 18.10. 2:00 7 2 7 70° O
Mi, 17.10. 20:00 4 1 25 50° NO
Mi, 17.10. 14:00 11 2 18 360° N
Mi, 17.10. 8:00 4 1 14 180° S
Mi, 17.10. 2:00 4 1 7 70° O
Di, 16.10. 20:00 4 1 18 190° S
Ortszeit Stärke Spitze Richtung
km/h Bft. km/h Grad Sektor
Do, 18.10. 15:00 14 3 25 30° NO
Do, 18.10. 14:50 14 3 - 30° NO
Do, 18.10. 14:40 18 3 - 40° NO
Do, 18.10. 14:30 14 3 22 40° NO
Do, 18.10. 14:20 14 3 - 40° NO
Do, 18.10. 14:10 15 3 - 40° NO
Do, 18.10. 14:00 14 3 25 20° N
Do, 18.10. 13:30 13 3 20 40° NO
Do, 18.10. 13:00 14 3 18 20° N
Do, 18.10. 12:30 13 3 17 20° N
Do, 18.10. 12:00 9 2 15 360° N
Ortszeit Untergrenze Bedeckung Gattung
total tief tief mittel hoch
Do, 18.10. 14:00 9000 m 7/8 0/8 - - -
Do, 18.10. 8:00 8700 m 8/8 0/8 - - -
Do, 18.10. 2:00 7500 m 8/8 0/8 - - -
Mi, 17.10. 20:00 8700 m 8/8 0/8 - - -
Mi, 17.10. 14:00 8100 m 8/8 0/8 - - -
Mi, 17.10. 8:00 9000 m 8/8 0/8 - - -
Mi, 17.10. 2:00 - 0/8 0/8 - - -
Di, 16.10. 20:00 6000 m 3/8 3/8 - - -
Ortszeit Bedeckungsgrad in Achtel und Wolkenuntergrenze
Do, 18.10. 15:00 8(8700m) 8(10500m)
Do, 18.10. 14:50 8(8700m) 8(10500m)
Do, 18.10. 14:40 8(8400m) 8(10500m)
Do, 18.10. 14:30 8(8700m) 8(10500m)
Do, 18.10. 14:20 8(8700m) 8(10500m)
Do, 18.10. 14:10 8(9000m) 8(10500m)
Do, 18.10. 14:00 6(9000m) 6(10500m) 7(10500m)
Do, 18.10. 13:30 2(9000m) 6(10500m) 6(10500m)
Do, 18.10. 13:00 1(8400m) 6(9000m) 8(10500m)
Do, 18.10. 12:30 3(8400m) 8(9000m) 8(10500m)
Do, 18.10. 12:00 8(8400m) 8(9000m)
Ortszeit Luftdruck NN (hPa) Tendenz (hPa in 3 Std.)
Do, 18.10. 14:00 1019 - 0,9
Do, 18.10. 8:00 1020 + 0,7
Do, 18.10. 2:00 1019 - 0,2
Mi, 17.10. 20:00 1017 + 0,5
Mi, 17.10. 14:00 1018 - 1,3
Mi, 17.10. 8:00 1020 + 0,3
Mi, 17.10. 2:00 1020 0,0
Di, 16.10. 20:00 1019 + 0,5
Ortszeit Luftdruck NN (hPa) Tendenz (hPa in 3 Std.)
Do, 18.10. 15:00 1018 - 1,6
Do, 18.10. 14:50 1018 keine Meldung
Do, 18.10. 14:40 1018 keine Meldung
Do, 18.10. 14:30 1018 - 1,4
Do, 18.10. 14:20 1018 keine Meldung
Do, 18.10. 14:10 1019 keine Meldung
Do, 18.10. 14:00 1019 - 0,9
Do, 18.10. 13:30 1019 - 0,6
Do, 18.10. 13:00 1020 - 0,1
Do, 18.10. 12:30 1020 + 0,6
Do, 18.10. 12:00 1020 + 0,7
Ortszeit Schneehöhe (cm)
Do, 18.10. 14:00 0
Do, 18.10. 8:00 0
Do, 18.10. 2:00 0
Mi, 17.10. 20:00 0
Mi, 17.10. 14:00 0
Mi, 17.10. 8:00 0
Mi, 17.10. 2:00 0
Di, 16.10. 20:00 0
Ortszeit Schneehöhe (cm)
Do, 18.10. 15:00 -
Do, 18.10. 14:50 -
Do, 18.10. 14:40 -
Do, 18.10. 14:30 0
Do, 18.10. 14:20 0
Do, 18.10. 14:10 0
Do, 18.10. 14:00 0
Do, 18.10. 13:30 0
Do, 18.10. 13:00 0
Do, 18.10. 12:30 0
Do, 18.10. 12:00 0
Link zu dieser Seite / Seite empfehlen

Das Wetter in ...